createdAt,value
2022-08-14T00:01:59.039Z,15.00
2022-08-14T00:04:35.918Z,14.90
2022-08-14T00:07:10.268Z,14.90
2022-08-14T00:09:39.588Z,14.90
2022-08-14T00:12:23.817Z,14.90
2022-08-14T00:14:55.019Z,14.90
2022-08-14T00:17:22.741Z,14.80
2022-08-14T00:19:49.686Z,14.80
2022-08-14T00:22:22.109Z,14.80
2022-08-14T00:25:07.969Z,14.80
2022-08-14T00:27:35.301Z,14.70
2022-08-14T00:30:08.808Z,14.80
2022-08-14T00:32:52.038Z,14.70
2022-08-14T00:36:33.818Z,14.70
2022-08-14T00:38:10.137Z,14.80
2022-08-14T00:40:36.936Z,14.70
2022-08-14T00:43:04.334Z,14.70
2022-08-14T00:45:31.498Z,14.60
2022-08-14T00:47:59.914Z,14.60
2022-08-14T00:50:28.732Z,14.60
2022-08-14T00:52:56.329Z,14.60
2022-08-14T00:55:23.342Z,14.60
2022-08-14T00:58:10.412Z,14.60
2022-08-14T01:00:47.566Z,14.60
2022-08-14T01:03:19.236Z,14.50
2022-08-14T01:05:52.059Z,14.50
2022-08-14T01:08:51.181Z,14.50
2022-08-14T01:11:19.165Z,14.50
2022-08-14T01:13:50.670Z,14.50
2022-08-14T01:16:28.222Z,14.50
2022-08-14T01:19:17.087Z,14.40
2022-08-14T01:21:53.535Z,14.40
2022-08-14T01:24:28.742Z,14.40
2022-08-14T01:26:58.000Z,14.40
2022-08-14T01:29:58.223Z,14.40
2022-08-14T01:32:15.608Z,14.40
2022-08-14T01:35:17.798Z,14.30
2022-08-14T01:37:38.094Z,14.30
2022-08-14T01:40:11.287Z,14.40
2022-08-14T01:42:42.874Z,14.40
2022-08-14T01:45:17.966Z,14.40
2022-08-14T01:47:52.375Z,14.30
2022-08-14T01:50:30.673Z,14.30
2022-08-14T01:53:01.508Z,14.30
2022-08-14T01:55:31.370Z,14.30
2022-08-14T01:58:18.342Z,14.30
2022-08-14T02:00:48.072Z,14.20
2022-08-14T02:03:15.985Z,14.20
2022-08-14T02:05:42.715Z,14.20
2022-08-14T02:08:10.591Z,14.20
2022-08-14T02:10:46.690Z,14.10
2022-08-14T02:13:16.261Z,14.10
2022-08-14T02:15:44.373Z,14.10
2022-08-14T02:18:11.757Z,14.10
2022-08-14T02:20:42.049Z,14.00
2022-08-14T02:23:09.122Z,14.00
2022-08-14T02:25:36.226Z,14.00
2022-08-14T02:28:23.805Z,14.00
2022-08-14T02:30:52.353Z,14.00
2022-08-14T02:33:20.538Z,14.00
2022-08-14T02:35:52.959Z,14.10
2022-08-14T02:38:30.348Z,14.00
2022-08-14T02:41:00.978Z,14.00
2022-08-14T02:43:36.727Z,14.00
2022-08-14T02:46:13.000Z,14.00
2022-08-14T02:49:03.985Z,14.00
2022-08-14T02:51:30.225Z,14.00
2022-08-14T02:53:58.324Z,14.00
2022-08-14T02:56:30.239Z,13.90
2022-08-14T02:59:17.110Z,13.90
2022-08-14T03:01:51.015Z,13.90
2022-08-14T03:04:21.695Z,13.90
2022-08-14T03:06:58.022Z,13.80
2022-08-14T03:10:25.253Z,13.90
2022-08-14T03:12:31.677Z,13.90
2022-08-14T03:15:03.183Z,13.80
2022-08-14T03:17:31.932Z,13.90
2022-08-14T03:20:11.371Z,13.90
2022-08-14T03:22:41.900Z,13.90
2022-08-14T03:25:10.020Z,13.80
2022-08-14T03:27:48.245Z,13.70
2022-08-14T03:30:24.922Z,13.80
2022-08-14T03:33:08.071Z,13.80
2022-08-14T03:35:37.429Z,13.80
2022-08-14T03:39:12.265Z,13.70
2022-08-14T03:40:58.395Z,13.70
2022-08-14T03:43:28.546Z,13.70
2022-08-14T03:46:00.417Z,13.70
2022-08-14T03:48:31.007Z,13.60
2022-08-14T03:50:58.746Z,13.60
2022-08-14T03:53:26.320Z,13.60
2022-08-14T03:55:56.074Z,13.60
2022-08-14T03:58:36.271Z,13.60
2022-08-14T04:01:04.212Z,13.60
2022-08-14T04:03:37.223Z,13.50
2022-08-14T04:06:04.850Z,13.50
2022-08-14T04:08:35.079Z,13.50
2022-08-14T04:11:03.017Z,13.50
2022-08-14T04:13:36.229Z,13.60
2022-08-14T04:16:12.430Z,13.60
2022-08-14T04:18:44.019Z,13.60
2022-08-14T04:21:11.170Z,13.60
2022-08-14T04:23:39.661Z,13.50
2022-08-14T04:26:08.651Z,13.50
2022-08-14T04:29:01.923Z,13.50
2022-08-14T04:32:57.751Z,13.50
2022-08-14T04:34:24.240Z,13.60
2022-08-14T04:37:13.526Z,13.60
2022-08-14T04:40:08.792Z,13.60
2022-08-14T04:42:54.659Z,13.70
2022-08-14T04:45:23.526Z,13.70
2022-08-14T04:48:10.297Z,13.80
2022-08-14T04:50:44.425Z,13.80
2022-08-14T04:53:12.955Z,13.90
2022-08-14T04:55:49.837Z,14.00
2022-08-14T04:58:22.050Z,14.10
2022-08-14T05:00:59.466Z,14.10
2022-08-14T05:03:28.343Z,14.20
2022-08-14T05:05:56.289Z,14.20
2022-08-14T05:08:31.742Z,14.30
2022-08-14T05:11:13.388Z,14.30
2022-08-14T05:13:59.525Z,14.40
2022-08-14T05:16:29.352Z,14.40
2022-08-14T05:19:17.930Z,14.50
2022-08-14T05:21:56.521Z,14.50
2022-08-14T05:24:25.386Z,14.60
2022-08-14T05:26:52.137Z,14.70
2022-08-14T05:29:20.381Z,14.70
2022-08-14T05:31:47.473Z,14.70
2022-08-14T05:34:14.166Z,14.80
2022-08-14T05:36:42.947Z,14.90
2022-08-14T05:39:17.515Z,14.90
2022-08-14T05:41:53.935Z,15.00
2022-08-14T05:44:21.070Z,15.10
2022-08-14T05:46:48.240Z,15.10
2022-08-14T05:49:15.509Z,15.20
2022-08-14T05:51:46.752Z,15.20
2022-08-14T05:54:20.652Z,15.30
2022-08-14T05:56:54.316Z,15.40
2022-08-14T05:59:36.405Z,15.40
2022-08-14T06:02:05.996Z,15.50
2022-08-14T06:04:32.862Z,15.50
2022-08-14T06:06:59.547Z,15.60
2022-08-14T06:09:26.510Z,15.70
2022-08-14T06:11:53.333Z,15.70
2022-08-14T06:14:24.049Z,15.80
2022-08-14T06:16:52.991Z,15.80
2022-08-14T06:19:20.408Z,15.90
2022-08-14T06:21:55.816Z,16.00
2022-08-14T06:24:26.061Z,16.10
2022-08-14T06:26:56.710Z,16.10
2022-08-14T06:29:32.148Z,16.20
2022-08-14T06:32:36.855Z,16.30
2022-08-14T06:35:03.560Z,16.30
2022-08-14T06:37:45.441Z,16.40
2022-08-14T06:40:26.101Z,16.50
2022-08-14T06:43:00.415Z,16.60
2022-08-14T06:45:31.294Z,16.70
2022-08-14T06:47:58.787Z,16.80
2022-08-14T06:50:30.170Z,16.90
2022-08-14T06:52:58.375Z,16.90
2022-08-14T06:55:27.822Z,17.10
2022-08-14T06:57:56.453Z,17.20
2022-08-14T07:00:27.011Z,17.30
2022-08-14T07:03:13.237Z,17.40
2022-08-14T07:05:55.710Z,17.50
2022-08-14T07:08:29.645Z,17.70
2022-08-14T07:10:59.593Z,17.80
2022-08-14T07:13:28.387Z,17.90
2022-08-14T07:15:56.583Z,18.00
2022-08-14T07:18:29.757Z,18.10
2022-08-14T07:20:57.860Z,18.20
2022-08-14T07:23:25.857Z,18.30
2022-08-14T07:25:53.853Z,18.40
2022-08-14T07:28:25.301Z,18.50
2022-08-14T07:30:56.215Z,18.60
2022-08-14T07:33:24.810Z,18.70
2022-08-14T07:35:58.304Z,18.80
2022-08-14T07:38:32.142Z,18.90
2022-08-14T07:41:02.675Z,19.00
2022-08-14T07:43:29.845Z,19.10
2022-08-14T07:45:56.606Z,19.20
2022-08-14T07:48:25.282Z,19.30
2022-08-14T07:50:52.827Z,19.40
2022-08-14T07:53:22.518Z,19.40
2022-08-14T07:56:00.187Z,19.60
2022-08-14T07:58:34.585Z,19.60
2022-08-14T08:01:06.960Z,19.70
2022-08-14T08:03:40.049Z,19.80
2022-08-14T08:06:17.544Z,19.80
2022-08-14T08:08:47.366Z,19.90
2022-08-14T08:11:30.159Z,20.00
2022-08-14T08:14:06.279Z,20.10
2022-08-14T08:16:38.251Z,20.10
2022-08-14T08:19:12.527Z,20.20
2022-08-14T08:21:39.607Z,20.20
2022-08-14T08:24:10.854Z,20.30
2022-08-14T08:26:39.308Z,20.40
2022-08-14T08:29:07.156Z,20.50
2022-08-14T08:31:35.164Z,20.60
2022-08-14T08:34:04.555Z,20.60
2022-08-14T08:36:41.871Z,20.70
2022-08-14T08:39:14.756Z,20.80
2022-08-14T08:41:44.359Z,20.80
2022-08-14T08:44:17.048Z,20.90
2022-08-14T08:46:59.979Z,21.00
2022-08-14T08:49:36.158Z,21.10
2022-08-14T08:52:04.555Z,21.20
2022-08-14T08:54:31.661Z,21.20
2022-08-14T08:56:59.804Z,21.30
2022-08-14T08:59:31.059Z,21.40
2022-08-14T09:02:04.052Z,21.50
2022-08-14T09:04:36.270Z,21.60
2022-08-14T09:07:14.446Z,21.70
2022-08-14T09:09:54.499Z,21.80
2022-08-14T09:12:26.937Z,21.90
2022-08-14T09:14:55.692Z,22.00
2022-08-14T09:17:25.848Z,22.10
2022-08-14T09:19:53.600Z,22.20
2022-08-14T09:22:35.580Z,22.40
2022-08-14T09:25:07.505Z,22.50
2022-08-14T09:27:35.497Z,22.70
2022-08-14T09:30:30.783Z,22.70
2022-08-14T09:32:59.300Z,22.70
2022-08-14T09:35:45.478Z,22.80
2022-08-14T09:38:30.988Z,22.80
2022-08-14T09:41:16.501Z,22.90
2022-08-14T09:43:55.146Z,22.90
2022-08-14T09:46:27.726Z,23.10
2022-08-14T09:48:58.503Z,23.10
2022-08-14T09:51:26.106Z,23.20
2022-08-14T09:54:18.074Z,23.30
2022-08-14T09:56:51.658Z,23.30
2022-08-14T09:59:25.527Z,23.30
2022-08-14T10:01:57.169Z,23.40
2022-08-14T10:04:33.941Z,23.50
2022-08-14T10:07:01.974Z,23.60
2022-08-14T10:09:33.619Z,23.60
2022-08-14T10:12:04.785Z,23.60
2022-08-14T10:14:36.081Z,23.70
2022-08-14T10:17:06.011Z,23.70
2022-08-14T10:19:35.275Z,23.80
2022-08-14T10:23:12.612Z,23.90
2022-08-14T10:25:00.561Z,23.90
2022-08-14T10:27:28.023Z,24.00
2022-08-14T10:29:55.836Z,24.10
2022-08-14T10:32:36.129Z,24.20
2022-08-14T10:35:05.383Z,24.20
2022-08-14T10:37:38.756Z,24.30
2022-08-14T10:40:32.518Z,24.30
2022-08-14T10:42:55.498Z,24.60
2022-08-14T10:45:23.542Z,24.50
2022-08-14T10:48:09.401Z,24.70
2022-08-14T10:50:41.384Z,24.60
2022-08-14T10:53:09.426Z,24.60
2022-08-14T10:55:45.397Z,24.70
2022-08-14T10:58:14.126Z,24.80
2022-08-14T11:00:46.922Z,24.80
2022-08-14T11:03:20.028Z,24.90
2022-08-14T11:06:10.976Z,25.00
2022-08-14T11:08:40.075Z,25.10
2022-08-14T11:11:07.684Z,25.20
2022-08-14T11:13:38.298Z,25.40
2022-08-14T11:16:05.121Z,25.50
2022-08-14T11:18:37.081Z,25.50
2022-08-14T11:21:08.411Z,25.70
2022-08-14T11:23:40.961Z,25.60
2022-08-14T11:26:11.348Z,25.60
2022-08-14T11:28:47.873Z,25.60
2022-08-14T11:31:20.071Z,25.60
2022-08-14T11:33:51.931Z,25.60
2022-08-14T11:36:22.716Z,25.50
2022-08-14T11:38:49.652Z,25.50
2022-08-14T11:41:18.461Z,25.40
2022-08-14T11:43:56.215Z,25.50
2022-08-14T11:46:30.585Z,25.50
2022-08-14T11:49:05.599Z,25.60
2022-08-14T11:51:36.040Z,25.60
2022-08-14T11:54:04.636Z,25.70
2022-08-14T11:56:36.067Z,25.70
2022-08-14T11:59:02.835Z,25.70
2022-08-14T12:01:33.534Z,25.60
2022-08-14T12:04:21.410Z,25.70
2022-08-14T12:06:52.333Z,25.70
2022-08-14T12:09:32.272Z,25.70
2022-08-14T12:11:59.596Z,25.80
2022-08-14T12:14:34.819Z,25.90
2022-08-14T12:17:09.530Z,25.90
2022-08-14T12:19:53.913Z,25.90
2022-08-14T12:22:40.263Z,25.90
2022-08-14T12:25:11.757Z,26.00
2022-08-14T12:27:51.920Z,26.00
2022-08-14T12:30:42.427Z,25.90
2022-08-14T12:33:31.309Z,26.00
2022-08-14T12:36:04.552Z,26.00
2022-08-14T12:38:36.521Z,26.00
2022-08-14T12:41:09.011Z,26.10
2022-08-14T12:43:45.044Z,26.20
2022-08-14T12:46:27.558Z,26.50
2022-08-14T12:48:56.492Z,26.60
2022-08-14T12:51:27.233Z,26.60
2022-08-14T12:53:54.973Z,26.60
2022-08-14T12:56:33.303Z,26.50
2022-08-14T12:59:01.469Z,26.50
2022-08-14T13:01:31.195Z,26.40
2022-08-14T13:04:07.216Z,26.50
2022-08-14T13:06:38.055Z,26.50
2022-08-14T13:09:11.157Z,26.40
2022-08-14T13:11:41.417Z,26.40
2022-08-14T13:14:17.541Z,26.50
2022-08-14T13:16:45.655Z,26.50
2022-08-14T13:19:18.466Z,26.60
2022-08-14T13:22:05.889Z,26.60
2022-08-14T13:24:36.671Z,26.60
2022-08-14T13:27:05.074Z,26.60
2022-08-14T13:29:35.811Z,26.60
2022-08-14T13:32:05.515Z,26.60
2022-08-14T13:34:33.400Z,26.70
2022-08-14T13:37:03.748Z,26.70
2022-08-14T13:39:36.194Z,26.80
2022-08-14T13:42:10.932Z,26.80
2022-08-14T13:44:42.733Z,26.80
2022-08-14T13:47:10.676Z,26.90
2022-08-14T13:49:40.171Z,27.00
2022-08-14T13:52:48.348Z,26.90
2022-08-14T13:54:58.323Z,26.90
2022-08-14T13:57:30.226Z,26.90
2022-08-14T14:00:00.841Z,27.00
2022-08-14T14:02:33.834Z,27.00
2022-08-14T14:05:01.748Z,27.00
2022-08-14T14:07:32.013Z,27.10
2022-08-14T14:10:06.179Z,27.10
2022-08-14T14:12:40.890Z,27.10
2022-08-14T14:15:09.833Z,27.10
2022-08-14T14:17:38.973Z,27.20
2022-08-14T14:20:07.371Z,27.20
2022-08-14T14:23:02.838Z,27.30
2022-08-14T14:25:26.052Z,27.30
2022-08-14T14:28:16.817Z,27.30
2022-08-14T14:30:54.171Z,27.30
2022-08-14T14:33:45.235Z,27.30
2022-08-14T14:36:13.842Z,27.30
2022-08-14T14:38:42.218Z,27.40
2022-08-14T14:41:09.622Z,27.40
2022-08-14T14:43:44.828Z,27.30
2022-08-14T14:46:13.231Z,27.40
2022-08-14T14:48:46.799Z,27.40
2022-08-14T14:51:21.981Z,27.40
2022-08-14T14:53:49.057Z,27.40
2022-08-14T14:56:50.490Z,27.40
2022-08-14T14:59:02.616Z,27.40
2022-08-14T15:01:32.073Z,27.40
2022-08-14T15:04:00.079Z,27.50
2022-08-14T15:06:31.948Z,27.40
2022-08-14T15:09:01.838Z,27.50
2022-08-14T15:11:32.276Z,27.50
2022-08-14T15:13:59.985Z,27.40
2022-08-14T15:16:27.531Z,27.50
2022-08-14T15:18:54.374Z,27.50
2022-08-14T15:21:21.497Z,27.50
2022-08-14T15:23:50.629Z,27.50
2022-08-14T15:26:24.406Z,27.50
2022-08-14T15:29:02.754Z,27.50
2022-08-14T15:31:31.566Z,27.40
2022-08-14T15:34:43.101Z,27.40
2022-08-14T15:37:05.194Z,27.40
2022-08-14T15:39:35.548Z,27.40
2022-08-14T15:42:04.107Z,27.40
2022-08-14T15:44:52.281Z,27.40
2022-08-14T15:47:28.671Z,27.40
2022-08-14T15:49:59.316Z,27.40
2022-08-14T15:52:32.957Z,27.40
2022-08-14T15:55:07.514Z,27.30
2022-08-14T15:57:34.841Z,27.30
2022-08-14T16:00:40.186Z,27.30
2022-08-14T16:03:09.698Z,27.30
2022-08-14T16:05:38.311Z,27.30
2022-08-14T16:08:26.575Z,27.20
2022-08-14T16:10:56.989Z,27.20
2022-08-14T16:13:41.261Z,27.40
2022-08-14T16:16:34.736Z,27.50
2022-08-14T16:19:03.219Z,27.40
2022-08-14T16:21:31.771Z,27.40
2022-08-14T16:23:59.940Z,27.40
2022-08-14T16:26:29.142Z,27.40
2022-08-14T16:29:04.483Z,27.60
2022-08-14T16:31:35.621Z,27.60
2022-08-14T16:34:46.327Z,27.50
2022-08-14T16:36:53.419Z,27.40
2022-08-14T16:39:21.206Z,27.60
2022-08-14T16:41:52.128Z,27.90
2022-08-14T16:44:31.398Z,27.90
2022-08-14T16:47:01.893Z,27.60
2022-08-14T16:50:02.926Z,27.30
2022-08-14T16:52:25.963Z,27.10
2022-08-14T16:55:05.102Z,27.00
2022-08-14T16:57:34.138Z,26.90
2022-08-14T17:00:00.966Z,26.90
2022-08-14T17:02:43.725Z,27.10
2022-08-14T17:05:19.363Z,27.50
2022-08-14T17:08:07.335Z,28.10
2022-08-14T17:10:51.564Z,28.20
2022-08-14T17:13:27.322Z,27.70
2022-08-14T17:16:23.929Z,27.40
2022-08-14T17:19:00.953Z,27.20
2022-08-14T17:21:41.065Z,26.80
2022-08-14T17:24:58.415Z,26.60
2022-08-14T17:27:04.026Z,26.40
2022-08-14T17:29:33.221Z,26.30
2022-08-14T17:32:02.216Z,26.10
2022-08-14T17:34:49.137Z,26.10
2022-08-14T17:37:26.132Z,26.00
2022-08-14T17:40:15.476Z,25.90
2022-08-14T17:42:50.959Z,25.90
2022-08-14T17:45:42.867Z,25.70
2022-08-14T17:49:10.594Z,25.80
2022-08-14T17:51:14.543Z,25.90
2022-08-14T17:53:53.375Z,25.60
2022-08-14T17:56:21.088Z,25.40
2022-08-14T17:58:49.303Z,25.20
2022-08-14T18:01:17.825Z,25.00
2022-08-14T18:03:53.576Z,24.90
2022-08-14T18:06:40.231Z,24.70
2022-08-14T18:09:25.262Z,24.50
2022-08-14T18:11:57.581Z,24.30
2022-08-14T18:14:32.743Z,24.20
2022-08-14T18:17:00.833Z,24.10
2022-08-14T18:19:28.964Z,24.00
2022-08-14T18:21:57.684Z,23.80
2022-08-14T18:24:29.744Z,23.80
2022-08-14T18:27:03.027Z,23.70
2022-08-14T18:29:39.726Z,23.60
2022-08-14T18:32:29.487Z,23.50
2022-08-14T18:35:01.158Z,23.40
2022-08-14T18:37:30.908Z,23.30
2022-08-14T18:40:17.841Z,23.20
2022-08-14T18:42:46.052Z,23.10
2022-08-14T18:45:16.058Z,23.00
2022-08-14T18:48:15.975Z,23.00
2022-08-14T18:51:02.533Z,22.90
2022-08-14T18:53:34.407Z,22.80
2022-08-14T18:56:09.309Z,22.70
2022-08-14T18:58:57.325Z,22.60
2022-08-14T19:01:29.952Z,22.50
2022-08-14T19:03:57.940Z,22.40
2022-08-14T19:06:53.755Z,22.40
2022-08-14T19:09:42.244Z,22.30
2022-08-14T19:12:41.137Z,22.30
2022-08-14T19:15:19.275Z,22.20
2022-08-14T19:18:13.914Z,22.10
2022-08-14T19:20:45.402Z,22.10
2022-08-14T19:23:15.628Z,22.00
2022-08-14T19:25:51.805Z,22.00
2022-08-14T19:28:31.682Z,21.90
2022-08-14T19:31:17.680Z,21.90
2022-08-14T19:33:48.808Z,21.80
2022-08-14T19:36:31.517Z,21.80
2022-08-14T19:39:04.713Z,21.70
2022-08-14T19:41:34.040Z,21.80
2022-08-14T19:44:10.930Z,21.70
2022-08-14T19:47:01.181Z,21.70
2022-08-14T19:50:30.154Z,21.60
2022-08-14T19:52:29.660Z,21.60
2022-08-14T19:54:57.514Z,21.50
2022-08-14T19:57:26.116Z,21.50
2022-08-14T20:00:04.730Z,21.40
2022-08-14T20:02:32.337Z,21.40
2022-08-14T20:05:05.952Z,21.30
2022-08-14T20:07:59.819Z,21.20
2022-08-14T20:11:04.042Z,21.20
2022-08-14T20:13:25.192Z,21.10
2022-08-14T20:16:02.143Z,21.10
2022-08-14T20:21:15.851Z,21.00
2022-08-14T20:23:42.681Z,21.00
2022-08-14T20:26:30.663Z,20.90
2022-08-14T20:28:59.652Z,20.90
2022-08-14T20:31:36.557Z,20.80
2022-08-14T20:34:18.903Z,20.80
2022-08-14T20:37:02.305Z,20.80
2022-08-14T20:39:34.584Z,20.80
2022-08-14T20:42:30.335Z,20.70
2022-08-14T20:45:21.653Z,20.70
2022-08-14T20:48:01.250Z,20.60
2022-08-14T20:50:32.269Z,20.60
2022-08-14T20:53:00.339Z,20.50
2022-08-14T20:55:32.466Z,20.50
2022-08-14T20:58:02.403Z,20.40
2022-08-14T21:00:52.989Z,20.40
2022-08-14T21:03:28.883Z,20.40
2022-08-14T21:05:57.999Z,20.40
2022-08-14T21:08:26.105Z,20.30
2022-08-14T21:10:54.961Z,20.30
2022-08-14T21:13:27.936Z,20.20
2022-08-14T21:16:34.215Z,20.20
2022-08-14T21:18:58.819Z,20.10
2022-08-14T21:21:41.872Z,20.10
2022-08-14T21:24:10.481Z,20.10
2022-08-14T21:27:04.462Z,20.10
2022-08-14T21:29:54.227Z,20.00
2022-08-14T21:32:34.083Z,20.00
2022-08-14T21:35:06.170Z,20.00
2022-08-14T21:37:35.006Z,19.90
2022-08-14T21:40:18.841Z,19.90
2022-08-14T21:42:48.698Z,19.90
2022-08-14T21:45:15.423Z,19.80
2022-08-14T21:47:43.367Z,19.70
2022-08-14T21:50:54.911Z,19.70
2022-08-14T21:53:00.655Z,19.60
2022-08-14T21:55:31.492Z,19.60
2022-08-14T21:58:52.635Z,19.50
2022-08-14T22:00:46.489Z,19.50
2022-08-14T22:03:17.058Z,19.50
2022-08-14T22:05:45.085Z,19.40
2022-08-14T22:08:14.130Z,19.40
2022-08-14T22:10:46.436Z,19.30
2022-08-14T22:13:18.034Z,19.30
2022-08-14T22:15:50.225Z,19.20
2022-08-14T22:18:20.012Z,19.20
2022-08-14T22:20:48.389Z,19.20
2022-08-14T22:23:21.597Z,19.10
2022-08-14T22:25:50.392Z,19.10
2022-08-14T22:28:20.298Z,19.00
2022-08-14T22:30:47.624Z,19.00
2022-08-14T22:33:31.038Z,18.90
2022-08-14T22:35:59.317Z,18.90
2022-08-14T22:38:35.588Z,18.80
2022-08-14T22:41:26.911Z,18.70
2022-08-14T22:43:51.658Z,18.70
2022-08-14T22:46:20.796Z,18.70
2022-08-14T22:48:48.478Z,18.70
2022-08-14T22:51:17.892Z,18.70
2022-08-14T22:53:46.184Z,18.60
2022-08-14T22:56:20.238Z,18.60
2022-08-14T22:58:53.781Z,18.60
2022-08-14T23:01:56.637Z,18.50
2022-08-14T23:04:35.608Z,18.40
2022-08-14T23:07:04.631Z,18.30
2022-08-14T23:09:35.939Z,18.30
2022-08-14T23:12:04.941Z,18.30
2022-08-14T23:14:51.631Z,18.20
2022-08-14T23:17:18.353Z,18.20
2022-08-14T23:19:46.027Z,18.20
2022-08-14T23:22:16.862Z,18.10
2022-08-14T23:24:43.804Z,18.10
2022-08-14T23:27:27.043Z,18.10
2022-08-14T23:29:58.245Z,18.00
2022-08-14T23:32:24.937Z,18.00
2022-08-14T23:34:54.370Z,18.00
2022-08-14T23:37:27.130Z,18.00
2022-08-14T23:39:54.379Z,18.00
2022-08-14T23:42:22.381Z,18.00
2022-08-14T23:45:07.879Z,17.90
2022-08-14T23:47:52.170Z,17.90
2022-08-14T23:50:34.536Z,17.90
2022-08-14T23:53:14.486Z,17.90
2022-08-14T23:55:57.261Z,17.80
2022-08-14T23:58:29.803Z,17.80
